Detroit, Michigan
Traffic Map
Current Weather Conditions
Detroit, Michigan
Broken Clouds
Broken Clouds
72°
Feels Like: 72°
Wind Chill: 72° Ceiling: 27000
Heat Index: 72° Visibility: 15mi
Dew Point: 57° Wind: 8mph
Humidity: 60% Direction: 70° (ENE)
Pressure: 29.95in Gusts: 0mph
Raw Report DataCYQG 032000Z 07007KT 050V140 15SM FEW038 BKN270 22/14 A2995 RMK CU1CI6 CC ASOCTD SLP142 DENSITY ALT 1500FT
Traffic Incident Summary
Active as of:
Severity:
Category:
InformationThere was an issue retrieving the traffic information for this location. Please try a different location or try again shortly.
Advertisements
Track Severe Weather on mobile